»·PEaware :: UAL720 KLAX-KSMF

UAL720 :: KLAX-KSMF

FLIGHT INFORMATION

Flight Status: Arrived
Operator:
United Airlines
More flights by this operator :: More flights under this callsign
Pilot: Jac C. (16067)
Aircraft: AIRBUS A320
(A320)
More flights by this aircraft type
Origin: KLAX Los Angeles Intl
United States
Destination: KSMF Sacramento Intl
United States
More flights between these airports :: More routes between these airports
Route: LADYJ3 CSTRO NURAY SUUTR2
File this flight plan on PilotEdge
Remarks:
Altitude:
(Current/Filed)
34,000ft
Speed:
(Current/Filed)
435kts
Departed: 28-Jan-18 06:33 PM
Arrived: 28-Jan-18 07:33 PM
Distance/Time
Traveled:
324nm/1:00
Distance/Time
To Go:
Arrived

Flight Plot

Page will automatically refresh every two minutes.

Flight plan parsing failed; only flown route is shown


Map Options




Map Legend


Flown Route
Filed Route
Departure Airport
Arrival Airport
Navaid (VOR, NDB)
Fix

Horizontal Profiles

Position Reports

Time Latitude Longitude Heading Altitude Ground
Speed
28-Jan-18 18:00 33.942215 -118.399166 264 115ft 0kts
28-Jan-18 18:01 33.942215 -118.399166 264 115ft 0kts
28-Jan-18 18:02 33.942215 -118.399166 264 115ft 0kts
28-Jan-18 18:03 33.942215 -118.399166 264 115ft 0kts
28-Jan-18 18:04 33.942215 -118.399166 264 115ft 0kts
28-Jan-18 18:05 33.942215 -118.399166 264 115ft 0kts
28-Jan-18 18:06 33.942215 -118.399166 264 115ft 0kts
28-Jan-18 18:07 33.942215 -118.399166 264 115ft 0kts
28-Jan-18 18:08 33.942215 -118.399166 264 115ft 0kts
28-Jan-18 18:09 33.942215 -118.399166 264 115ft 0kts
28-Jan-18 18:10 33.942215 -118.399166 264 115ft 0kts
28-Jan-18 18:11 33.942215 -118.399166 264 115ft 0kts
28-Jan-18 18:12 33.942215 -118.399166 264 115ft 0kts
28-Jan-18 18:13 33.942215 -118.399166 264 115ft 0kts
28-Jan-18 18:14 33.942215 -118.399166 264 115ft 0kts
28-Jan-18 18:15 33.942215 -118.399167 264 115ft 0kts
28-Jan-18 18:18 33.942215 -118.399166 264 115ft 0kts
28-Jan-18 18:19 33.942215 -118.399166 264 115ft 0kts
28-Jan-18 18:20 33.942215 -118.399166 264 115ft 0kts
28-Jan-18 18:21 33.942215 -118.399166 264 115ft 0kts
28-Jan-18 18:22 33.942215 -118.399166 264 115ft 0kts
28-Jan-18 18:23 33.942215 -118.399166 264 115ft 0kts
28-Jan-18 18:24 33.942215 -118.399166 264 115ft 0kts
28-Jan-18 18:25 33.942215 -118.399166 264 115ft 0kts
28-Jan-18 18:26 33.942215 -118.399166 264 115ft 0kts
28-Jan-18 18:27 33.942215 -118.399166 264 115ft 0kts
28-Jan-18 18:28 33.942215 -118.399166 264 115ft 0kts
28-Jan-18 18:29 33.942370 -118.398529 185 114ft 1kts
28-Jan-18 18:30 33.942468 -118.398541 173 114ft 0kts
28-Jan-18 18:31 33.942468 -118.398541 173 114ft 0kts
28-Jan-18 18:32 33.942468 -118.398541 173 114ft 0kts
28-Jan-18 18:33 33.941535 -118.398427 174 113ft 11kts
28-Jan-18 18:34 33.939263 -118.395296 82 110ft 14kts
28-Jan-18 18:35 33.939740 -118.390615 83 105ft 20kts
28-Jan-18 18:36 33.940356 -118.384568 82 102ft 15kts
28-Jan-18 18:37 33.940720 -118.380706 108 100ft 0kts
28-Jan-18 18:38 33.940113 -118.380109 185 100ft 10kts
28-Jan-18 18:39 33.937623 -118.401077 262 187ft 162kts
28-Jan-18 18:40 33.931359 -118.459487 265 2170ft 212kts
28-Jan-18 18:41 33.924561 -118.544553 265 4568ft 268kts
28-Jan-18 18:42 33.932988 -118.629673 321 6259ft 270kts
28-Jan-18 18:43 33.997327 -118.673935 355 8649ft 276kts
28-Jan-18 18:44 34.077395 -118.671051 8 10288ft 338kts
28-Jan-18 18:45 34.173626 -118.649145 12 12925ft 353kts
28-Jan-18 18:46 34.273724 -118.640108 350 15391ft 376kts
28-Jan-18 18:47 34.377600 -118.663069 350 18111ft 386kts
28-Jan-18 18:48 34.484662 -118.685476 351 20552ft 397kts
28-Jan-18 18:49 34.592025 -118.706474 351 22675ft 408kts
28-Jan-18 18:50 34.705075 -118.728889 345 23396ft 413kts
28-Jan-18 18:51 34.807318 -118.791881 331 24211ft 416kts
28-Jan-18 18:52 34.909494 -118.861871 331 25906ft 428kts
28-Jan-18 18:53 35.013857 -118.933796 331 27518ft 435kts
28-Jan-18 18:54 35.117038 -119.005116 331 29530ft 427kts
28-Jan-18 18:55 35.218593 -119.075442 330 31283ft 421kts
28-Jan-18 18:56 35.319346 -119.145498 330 32778ft 416kts
28-Jan-18 18:57 35.418977 -119.214977 330 34054ft 412kts
28-Jan-18 18:58 35.524499 -119.266180 340 34318ft 412kts
28-Jan-18 18:59 35.632004 -119.309685 340 34316ft 411kts
28-Jan-18 19:00 35.740348 -119.353239 340 34317ft 411kts
28-Jan-18 19:01 35.848761 -119.396931 340 34318ft 411kts
28-Jan-18 19:02 35.957444 -119.440854 340 34318ft 411kts
28-Jan-18 19:03 36.064903 -119.484401 338 34314ft 408kts
28-Jan-18 19:04 36.172474 -119.528068 338 34316ft 409kts
28-Jan-18 19:05 36.280365 -119.572045 338 34318ft 410kts
28-Jan-18 19:06 36.387929 -119.616024 338 34319ft 410kts
28-Jan-18 19:07 36.494874 -119.659922 337 34350ft 410kts
28-Jan-18 19:08 36.602223 -119.707307 327 34344ft 408kts
28-Jan-18 19:09 36.697332 -119.781461 325 34339ft 406kts
28-Jan-18 19:10 36.792175 -119.856148 325 34350ft 405kts
28-Jan-18 19:11 36.887116 -119.931223 325 34348ft 405kts
28-Jan-18 19:12 36.981526 -120.006069 325 33743ft 394kts
28-Jan-18 19:13 37.072700 -120.077898 325 32340ft 386kts
28-Jan-18 19:14 37.161530 -120.147877 325 30668ft 376kts
28-Jan-18 19:15 37.250400 -120.218201 325 29320ft 392kts
28-Jan-18 19:16 37.343954 -120.292759 325 27507ft 395kts
28-Jan-18 19:17 37.434537 -120.365336 325 25069ft 377kts
28-Jan-18 19:18 37.518388 -120.442599 320 24328ft 393kts
28-Jan-18 19:19 37.599857 -120.524248 320 21539ft 364kts
28-Jan-18 19:20 37.674124 -120.598645 320 20273ft 329kts
28-Jan-18 19:21 37.744325 -120.669260 320 19191ft 330kts
28-Jan-18 19:22 37.814273 -120.740025 320 18016ft 319kts
28-Jan-18 19:23 37.883467 -120.810071 319 16621ft 320kts
28-Jan-18 19:24 37.953726 -120.881424 319 15358ft 327kts
28-Jan-18 19:25 38.024325 -120.953283 321 14147ft 325kts
28-Jan-18 19:26 38.090255 -121.028145 311 12838ft 318kts
28-Jan-18 19:27 38.147317 -121.111694 312 11332ft 312kts
28-Jan-18 19:28 38.203267 -121.194301 311 9849ft 307kts
28-Jan-18 19:29 38.258444 -121.272824 313 8483ft 283kts
28-Jan-18 19:30 38.309488 -121.344766 312 7479ft 278kts
28-Jan-18 19:31 38.359164 -121.414830 312 6602ft 250kts
28-Jan-18 19:32 38.403086 -121.476618 312 5523ft 223kts
28-Jan-18 19:33 38.446295 -121.537532 312 4488ft 236kts
28-Jan-18 19:34 38.491747 -121.598159 334 3423ft 238kts
28-Jan-18 19:35 38.554098 -121.603189 0 2615ft 222kts
28-Jan-18 19:36 38.613689 -121.602451 1 1445ft 201kts
28-Jan-18 19:37 38.660644 -121.601811 1 514ft 139kts
28-Jan-18 19:38 38.696397 -121.601283 0 25ft 79kts
28-Jan-18 19:39 38.701294 -121.600283 87 28ft 16kts
28-Jan-18 19:40 38.700701 -121.598567 177 28ft 7kts
28-Jan-18 19:41 38.697012 -121.597831 91 28ft 11kts
28-Jan-18 19:42 38.696300 -121.594101 181 28ft 2kts
28-Jan-18 19:43 38.696255 -121.594102 182 28ft 0kts
28-Jan-18 19:44 38.696255 -121.594102 182 28ft 0kts

Navigation Log

Ident Type
Flight plan parsing failed, navigation log unavailable